createdAt,value
2023-02-11T00:00:42.070Z,31.08
2023-02-11T00:03:08.896Z,27.63
2023-02-11T00:05:35.485Z,28.95
2023-02-11T00:08:02.223Z,23.73
2023-02-11T00:10:28.768Z,27.17
2023-02-11T00:12:55.919Z,21.00
2023-02-11T00:15:22.672Z,17.60
2023-02-11T00:17:49.152Z,20.70
2023-02-11T00:20:15.794Z,23.27
2023-02-11T00:22:42.285Z,19.25
2023-02-11T00:25:08.756Z,24.42
2023-02-11T00:27:37.163Z,23.48
2023-02-11T00:30:05.295Z,16.67
2023-02-11T00:32:32.109Z,14.27
2023-02-11T00:34:58.692Z,19.42
2023-02-11T00:37:25.270Z,22.73
2023-02-11T00:39:51.785Z,19.40
2023-02-11T00:42:18.396Z,23.45
2023-02-11T00:44:44.873Z,24.40
2023-02-11T00:47:11.728Z,25.25
2023-02-11T00:49:40.304Z,18.33
2023-02-11T00:52:07.313Z,16.50
2023-02-11T00:54:33.852Z,23.27
2023-02-11T00:57:00.357Z,18.75
2023-02-11T00:59:27.093Z,20.33
2023-02-11T01:01:53.715Z,24.17
2023-02-11T01:04:20.313Z,20.58
2023-02-11T01:06:46.850Z,18.13
2023-02-11T01:09:13.375Z,22.95
2023-02-11T01:11:39.959Z,19.25
2023-02-11T01:14:06.511Z,19.50
2023-02-11T01:16:33.098Z,23.67
2023-02-11T01:18:59.630Z,23.95
2023-02-11T01:21:26.480Z,22.67
2023-02-11T01:23:53.157Z,13.73
2023-02-11T01:26:19.849Z,19.50
2023-02-11T01:28:46.364Z,22.23
2023-02-11T01:31:12.956Z,16.95
2023-02-11T01:33:40.004Z,21.55
2023-02-11T01:36:07.688Z,20.65
2023-02-11T01:38:34.983Z,18.60
2023-02-11T01:41:08.255Z,23.70
2023-02-11T01:43:40.045Z,20.08
2023-02-11T01:46:26.801Z,20.15
2023-02-11T01:48:56.721Z,23.85
2023-02-11T01:51:44.670Z,24.02
2023-02-11T01:54:32.266Z,23.05
2023-02-11T01:57:18.175Z,13.98
2023-02-11T01:59:47.825Z,17.23
2023-02-11T02:02:17.922Z,16.52
2023-02-11T02:04:55.707Z,27.10
2023-02-11T02:07:32.561Z,27.33
2023-02-11T02:10:04.550Z,21.10
2023-02-11T02:12:31.068Z,20.27
2023-02-11T02:15:29.941Z,24.85
2023-02-11T02:18:08.013Z,20.02
2023-02-11T02:27:07.074Z,19.20
2023-02-11T02:29:51.665Z,22.75
2023-02-11T02:32:38.961Z,10.77
2023-02-11T02:35:18.428Z,33.13
2023-02-11T02:37:51.986Z,28.65
2023-02-11T02:40:25.894Z,24.35
2023-02-11T02:42:53.202Z,25.83
2023-02-11T02:45:19.851Z,20.25
2023-02-11T02:47:46.423Z,21.02
2023-02-11T02:50:14.192Z,23.50
2023-02-11T02:52:58.524Z,23.13
2023-02-11T02:55:35.193Z,47.38
2023-02-11T02:58:47.388Z,27.80
2023-02-11T03:01:35.736Z,18.17
2023-02-11T03:04:29.652Z,18.40
2023-02-11T03:07:14.876Z,24.90
2023-02-11T03:10:07.646Z,27.90
2023-02-11T03:12:35.335Z,26.65
2023-02-11T03:15:03.528Z,22.35
2023-02-11T03:17:31.018Z,27.38
2023-02-11T03:19:59.093Z,20.63
2023-02-11T03:22:30.975Z,23.80
2023-02-11T03:24:57.689Z,44.90
2023-02-11T03:27:33.807Z,19.48
2023-02-11T03:30:13.775Z,25.67
2023-02-11T03:32:52.172Z,24.77
2023-02-11T03:35:28.374Z,36.30
2023-02-11T03:38:02.218Z,24.27
2023-02-11T03:40:32.647Z,34.65
2023-02-11T03:43:01.682Z,26.45
2023-02-11T03:45:28.638Z,34.28
2023-02-11T03:48:00.055Z,34.05
2023-02-11T03:50:27.073Z,31.73
2023-02-11T03:52:54.204Z,27.65
2023-02-11T03:55:21.718Z,28.08
2023-02-11T03:57:48.411Z,28.58
2023-02-11T04:00:15.398Z,28.00
2023-02-11T04:02:42.867Z,28.50
2023-02-11T04:05:14.328Z,35.65
2023-02-11T04:07:41.060Z,34.38
2023-02-11T04:10:08.246Z,34.83
2023-02-11T04:12:34.709Z,28.23
2023-02-11T04:15:01.206Z,23.88
2023-02-11T04:17:27.717Z,35.97
2023-02-11T04:19:54.510Z,35.50
2023-02-11T04:22:21.026Z,31.05
2023-02-11T04:24:47.556Z,28.70
2023-02-11T04:27:14.176Z,26.10
2023-02-11T04:29:40.690Z,29.13
2023-02-11T04:32:07.621Z,32.15
2023-02-11T04:34:34.160Z,30.02
2023-02-11T04:37:00.758Z,25.98
2023-02-11T04:39:27.475Z,38.83
2023-02-11T04:41:53.982Z,37.72
2023-02-11T04:44:20.533Z,41.47
2023-02-11T04:46:47.144Z,37.53
2023-02-11T04:49:14.968Z,36.40
2023-02-11T04:51:41.672Z,34.53
2023-02-11T04:54:08.251Z,36.15
2023-02-11T04:56:34.850Z,42.75
2023-02-11T04:59:01.597Z,34.92
2023-02-11T05:01:28.172Z,38.60
2023-02-11T05:03:54.695Z,42.75
2023-02-11T05:06:21.198Z,38.40
2023-02-11T05:08:47.694Z,35.45
2023-02-11T05:11:19.809Z,51.75
2023-02-11T05:13:47.030Z,50.83
2023-02-11T05:16:14.432Z,41.10
2023-02-11T05:18:42.253Z,40.72
2023-02-11T05:21:10.527Z,42.33
2023-02-11T05:23:37.379Z,43.45
2023-02-11T05:26:04.141Z,45.38
2023-02-11T05:28:30.763Z,44.45
2023-02-11T05:30:57.389Z,40.30
2023-02-11T05:33:24.309Z,44.53
2023-02-11T05:35:51.110Z,54.55
2023-02-11T05:38:17.794Z,43.55
2023-02-11T05:40:44.630Z,41.78
2023-02-11T05:43:11.223Z,41.58
2023-02-11T05:45:37.741Z,48.03
2023-02-11T05:48:04.557Z,43.80
2023-02-11T05:50:31.119Z,47.45
2023-02-11T05:52:57.668Z,45.05
2023-02-11T05:55:24.375Z,46.15
2023-02-11T05:57:50.874Z,44.97
2023-02-11T06:00:17.912Z,47.83
2023-02-11T06:02:44.586Z,42.92
2023-02-11T06:05:11.106Z,50.63
2023-02-11T06:07:37.613Z,49.58
2023-02-11T06:10:04.488Z,51.65
2023-02-11T06:12:30.977Z,48.00
2023-02-11T06:14:57.504Z,46.42
2023-02-11T06:17:25.331Z,58.20
2023-02-11T06:19:51.887Z,60.70
2023-02-11T06:22:18.387Z,50.67
2023-02-11T06:25:00.412Z,49.83
2023-02-11T06:27:27.771Z,82.57
2023-02-11T06:29:54.339Z,58.15
2023-02-11T06:32:42.327Z,63.38
2023-02-11T06:35:09.989Z,60.63
2023-02-11T06:37:37.872Z,52.60
2023-02-11T06:40:04.716Z,53.97
2023-02-11T06:42:31.407Z,61.50
2023-02-11T06:44:57.972Z,64.35
2023-02-11T06:47:25.129Z,50.17
2023-02-11T06:49:51.687Z,67.28
2023-02-11T06:52:18.208Z,60.60
2023-02-11T06:54:44.769Z,67.25
2023-02-11T06:57:11.363Z,59.78
2023-02-11T06:59:37.870Z,65.93
2023-02-11T07:02:04.471Z,56.63
2023-02-11T07:04:30.969Z,67.05
2023-02-11T07:06:57.446Z,66.45
2023-02-11T07:09:24.406Z,68.20
2023-02-11T07:11:50.976Z,62.50
2023-02-11T07:14:17.539Z,73.90
2023-02-11T07:16:44.118Z,71.05
2023-02-11T07:19:10.970Z,74.60
2023-02-11T07:21:37.809Z,72.15
2023-02-11T07:24:10.889Z,66.25
2023-02-11T07:26:37.966Z,76.57
2023-02-11T07:29:04.643Z,60.75
2023-02-11T07:31:31.414Z,76.10
2023-02-11T07:34:00.644Z,81.53
2023-02-11T07:36:28.982Z,80.18
2023-02-11T07:38:55.587Z,67.07
2023-02-11T07:41:25.080Z,60.75
2023-02-11T07:43:52.200Z,66.55
2023-02-11T07:46:23.939Z,69.13
2023-02-11T07:48:50.519Z,64.57
2023-02-11T07:51:22.521Z,65.93
2023-02-11T07:53:49.100Z,61.90
2023-02-11T07:56:16.768Z,68.57
2023-02-11T07:58:43.896Z,81.53
2023-02-11T08:01:13.726Z,69.28
2023-02-11T08:03:42.791Z,58.22
2023-02-11T08:06:12.270Z,64.15
2023-02-11T08:08:38.993Z,72.82
2023-02-11T08:11:17.100Z,62.50
2023-02-11T08:13:44.371Z,59.80
2023-02-11T08:16:22.606Z,64.32
2023-02-11T08:18:50.164Z,62.40
2023-02-11T08:21:16.837Z,54.88
2023-02-11T08:23:44.775Z,62.22
2023-02-11T08:26:17.084Z,63.70
2023-02-11T08:28:45.262Z,57.58
2023-02-11T08:31:18.012Z,61.65
2023-02-11T08:33:44.962Z,54.35
2023-02-11T08:36:13.965Z,55.88
2023-02-11T08:38:40.747Z,65.63
2023-02-11T08:41:07.954Z,48.08
2023-02-11T08:43:35.335Z,57.28
2023-02-11T08:46:02.503Z,57.03
2023-02-11T08:48:29.764Z,61.90
2023-02-11T08:50:56.876Z,55.13
2023-02-11T08:53:23.712Z,57.03
2023-02-11T08:55:51.249Z,59.08
2023-02-11T08:58:19.263Z,47.40
2023-02-11T09:00:46.582Z,46.10
2023-02-11T09:03:14.233Z,48.60
2023-02-11T09:05:47.952Z,41.47
2023-02-11T09:08:14.643Z,47.25
2023-02-11T09:10:41.361Z,44.20
2023-02-11T09:13:08.330Z,41.47
2023-02-11T09:15:35.338Z,40.58
2023-02-11T09:18:03.885Z,44.15
2023-02-11T09:20:30.816Z,39.53
2023-02-11T09:22:58.080Z,36.42
2023-02-11T09:25:24.940Z,38.63
2023-02-11T09:27:52.331Z,38.42
2023-02-11T09:30:18.904Z,35.60
2023-02-11T09:32:45.474Z,37.90
2023-02-11T09:35:11.985Z,35.97
2023-02-11T09:37:38.473Z,32.70
2023-02-11T09:40:05.547Z,26.52
2023-02-11T09:42:40.587Z,34.17
2023-02-11T09:45:15.840Z,33.53
2023-02-11T09:50:16.511Z,35.58
2023-02-11T09:53:06.832Z,31.98
2023-02-11T09:55:37.984Z,33.20
2023-02-11T09:58:11.010Z,28.95
2023-02-11T10:00:42.077Z,31.83
2023-02-11T10:03:11.675Z,29.48
2023-02-11T10:05:51.045Z,32.30
2023-02-11T10:08:26.124Z,37.85
2023-02-11T10:11:40.820Z,29.50
2023-02-11T10:14:40.678Z,26.20
2023-02-11T10:17:31.605Z,28.25
2023-02-11T10:20:28.909Z,35.05
2023-02-11T10:22:58.802Z,31.45
2023-02-11T10:25:45.690Z,31.55
2023-02-11T10:28:20.332Z,26.63
2023-02-11T10:30:58.350Z,35.30
2023-02-11T10:33:24.827Z,28.75
2023-02-11T10:35:51.470Z,35.72
2023-02-11T10:38:18.096Z,28.05
2023-02-11T10:40:44.667Z,35.38
2023-02-11T10:43:25.867Z,35.03
2023-02-11T10:45:53.828Z,29.85
2023-02-11T10:48:39.362Z,25.42
2023-02-11T10:51:33.570Z,32.85
2023-02-11T10:54:13.812Z,28.45
2023-02-11T10:56:50.244Z,25.20
2023-02-11T10:59:46.590Z,25.48
2023-02-11T11:02:32.201Z,21.95
2023-02-11T11:07:30.108Z,22.02
2023-02-11T11:10:29.203Z,26.05
2023-02-11T11:12:55.901Z,23.65
2023-02-11T11:15:25.019Z,28.38
2023-02-11T11:18:20.943Z,25.10
2023-02-11T11:21:00.228Z,24.95
2023-02-11T11:23:28.533Z,25.60
2023-02-11T11:26:05.952Z,25.02
2023-02-11T11:28:54.647Z,24.15
2023-02-11T11:31:28.179Z,33.22
2023-02-11T11:33:56.901Z,29.42
2023-02-11T11:36:32.016Z,29.23
2023-02-11T11:39:02.061Z,22.73
2023-02-11T11:41:30.943Z,28.60
2023-02-11T11:44:19.203Z,24.65
2023-02-11T11:46:46.536Z,20.88
2023-02-11T11:49:26.426Z,28.77
2023-02-11T11:52:34.664Z,22.55
2023-02-11T11:55:16.388Z,24.15
2023-02-11T11:57:43.000Z,22.98
2023-02-11T12:00:32.532Z,20.75
2023-02-11T12:03:05.211Z,22.70
2023-02-11T12:05:36.396Z,17.25
2023-02-11T12:08:28.984Z,20.50
2023-02-11T12:11:07.918Z,19.30
2023-02-11T12:13:46.150Z,22.25
2023-02-11T12:16:34.683Z,20.65
2023-02-11T12:19:12.051Z,17.98
2023-02-11T12:21:55.508Z,23.65
2023-02-11T12:24:31.684Z,23.00
2023-02-11T12:27:10.856Z,19.80
2023-02-11T12:29:40.617Z,16.23
2023-02-11T12:32:43.928Z,21.70
2023-02-11T12:35:25.884Z,14.73
2023-02-11T12:38:18.899Z,18.52
2023-02-11T12:41:10.386Z,20.67
2023-02-11T12:43:41.204Z,14.38
2023-02-11T12:46:32.559Z,15.35
2023-02-11T12:49:26.628Z,15.43
2023-02-11T12:52:02.991Z,17.55
2023-02-11T12:54:40.474Z,17.92
2023-02-11T12:57:15.234Z,17.20
2023-02-11T12:59:56.462Z,18.33
2023-02-11T13:02:49.660Z,16.17
2023-02-11T13:05:55.009Z,17.52
2023-02-11T13:08:25.712Z,15.80
2023-02-11T13:11:04.988Z,13.32
2023-02-11T13:13:39.521Z,17.20
2023-02-11T13:16:13.483Z,16.88
2023-02-11T13:18:44.839Z,16.83
2023-02-11T13:21:17.771Z,16.38
2023-02-11T13:23:54.981Z,13.18
2023-02-11T13:26:29.590Z,13.27
2023-02-11T13:29:14.321Z,13.98
2023-02-11T13:31:40.941Z,17.57
2023-02-11T13:34:43.012Z,11.50
2023-02-11T13:37:19.611Z,14.82
2023-02-11T13:40:00.645Z,10.65
2023-02-11T13:42:28.422Z,14.70
2023-02-11T13:44:55.354Z,11.80
2023-02-11T13:47:35.228Z,15.10
2023-02-11T13:50:04.976Z,15.10
2023-02-11T13:52:37.434Z,11.68
2023-02-11T13:55:21.489Z,13.38
2023-02-11T13:58:07.915Z,13.68
2023-02-11T14:00:34.598Z,12.05
2023-02-11T14:03:31.758Z,11.05
2023-02-11T14:06:46.698Z,13.65
2023-02-11T14:09:13.130Z,13.68
2023-02-11T14:11:55.257Z,16.63
2023-02-11T14:14:26.941Z,12.30
2023-02-11T14:17:02.640Z,11.35
2023-02-11T14:19:43.901Z,14.52
2023-02-11T14:22:10.416Z,9.48
2023-02-11T14:24:36.856Z,9.70
2023-02-11T14:27:13.797Z,12.52
2023-02-11T14:29:58.818Z,15.45
2023-02-11T14:32:31.191Z,8.18
2023-02-11T14:35:18.472Z,8.55
2023-02-11T14:38:26.674Z,8.13
2023-02-11T14:41:10.913Z,7.30
2023-02-11T14:43:41.357Z,7.80
2023-02-11T14:46:08.849Z,7.63
2023-02-11T14:48:37.340Z,8.68
2023-02-11T14:51:10.668Z,11.20
2023-02-11T14:53:38.259Z,13.23
2023-02-11T14:56:18.438Z,8.70
2023-02-11T14:58:49.368Z,11.98
2023-02-11T15:01:27.781Z,7.55
2023-02-11T15:04:00.496Z,7.47
2023-02-11T15:06:32.930Z,9.02
2023-02-11T15:09:18.766Z,9.52
2023-02-11T15:11:47.716Z,9.82
2023-02-11T15:14:17.310Z,8.48
2023-02-11T15:16:45.276Z,11.25
2023-02-11T15:19:23.575Z,6.70
2023-02-11T15:21:50.960Z,8.38
2023-02-11T15:24:24.277Z,9.30
2023-02-11T15:26:58.463Z,11.75
2023-02-11T15:29:26.980Z,8.90
2023-02-11T15:32:07.900Z,12.73
2023-02-11T15:34:34.889Z,10.40
2023-02-11T15:37:03.313Z,9.52
2023-02-11T15:39:36.806Z,10.05
2023-02-11T15:42:29.060Z,8.85
2023-02-11T15:45:29.109Z,7.57
2023-02-11T15:48:05.436Z,7.30
2023-02-11T15:50:35.127Z,9.77
2023-02-11T15:53:24.442Z,9.18
2023-02-11T15:55:53.167Z,7.32
2023-02-11T15:58:20.123Z,9.85
2023-02-11T16:00:49.066Z,10.05
2023-02-11T16:03:24.349Z,11.23
2023-02-11T16:08:22.253Z,9.90
2023-02-11T16:11:02.991Z,9.57
2023-02-11T16:13:33.746Z,14.82
2023-02-11T16:16:04.782Z,10.35
2023-02-11T16:18:38.628Z,15.43
2023-02-11T16:21:14.258Z,13.50
2023-02-11T16:23:42.478Z,8.98
2023-02-11T16:26:31.984Z,11.07
2023-02-11T16:29:11.961Z,10.63
2023-02-11T16:31:41.329Z,11.23
2023-02-11T16:34:17.773Z,8.90
2023-02-11T16:36:45.088Z,13.15
2023-02-11T16:39:11.658Z,12.50
2023-02-11T16:41:38.200Z,9.43
2023-02-11T16:44:05.082Z,11.50
2023-02-11T16:46:32.794Z,11.63
2023-02-11T16:49:04.818Z,10.52
2023-02-11T16:51:31.470Z,9.45
2023-02-11T16:53:57.984Z,11.85
2023-02-11T16:56:24.779Z,8.85
2023-02-11T16:58:51.308Z,10.95
2023-02-11T17:01:17.966Z,8.27
2023-02-11T17:03:45.643Z,9.20
2023-02-11T17:06:13.213Z,11.40
2023-02-11T17:08:40.231Z,10.90
2023-02-11T17:11:06.736Z,15.30
2023-02-11T17:13:33.713Z,8.35
2023-02-11T17:16:00.336Z,8.77
2023-02-11T17:18:26.979Z,9.90
2023-02-11T17:20:53.725Z,17.45
2023-02-11T17:23:20.275Z,13.15
2023-02-11T17:25:47.088Z,14.50
2023-02-11T17:28:13.661Z,10.38
2023-02-11T17:30:41.874Z,10.07
2023-02-11T17:33:08.416Z,7.78
2023-02-11T17:35:34.922Z,10.43
2023-02-11T17:38:01.631Z,9.70
2023-02-11T17:40:28.196Z,8.88
2023-02-11T17:42:54.708Z,13.40
2023-02-11T17:45:22.357Z,9.40
2023-02-11T17:47:49.516Z,9.55
2023-02-11T17:50:16.174Z,11.48
2023-02-11T17:52:42.728Z,9.05
2023-02-11T17:55:09.472Z,11.50
2023-02-11T17:57:36.114Z,8.90
2023-02-11T18:00:04.921Z,13.13
2023-02-11T18:02:31.404Z,13.20
2023-02-11T18:04:58.797Z,17.23
2023-02-11T18:07:26.265Z,16.42
2023-02-11T18:09:53.216Z,19.08
2023-02-11T18:12:26.261Z,16.13
2023-02-11T18:14:58.020Z,16.25
2023-02-11T18:17:25.458Z,17.10
2023-02-11T18:19:55.950Z,15.07
2023-02-11T18:22:22.775Z,14.02
2023-02-11T18:24:53.988Z,12.88
2023-02-11T18:27:23.506Z,9.45
2023-02-11T18:29:50.266Z,10.48
2023-02-11T18:32:16.813Z,10.93
2023-02-11T18:34:43.375Z,12.55
2023-02-11T18:37:10.327Z,10.57
2023-02-11T18:39:37.160Z,8.90
2023-02-11T18:42:03.818Z,10.32
2023-02-11T18:44:30.408Z,11.27
2023-02-11T18:46:56.929Z,9.93
2023-02-11T18:49:23.518Z,8.32
2023-02-11T18:51:50.108Z,11.48
2023-02-11T18:54:17.062Z,9.30
2023-02-11T18:56:44.465Z,10.43
2023-02-11T18:59:11.110Z,11.85
2023-02-11T19:01:40.003Z,15.50
2023-02-11T19:04:06.710Z,13.00
2023-02-11T19:06:36.261Z,13.52
2023-02-11T19:09:09.843Z,14.40
2023-02-11T19:11:50.260Z,12.27
2023-02-11T19:14:24.466Z,16.50
2023-02-11T19:16:53.488Z,11.50
2023-02-11T19:19:22.299Z,13.63
2023-02-11T19:21:48.966Z,14.63
2023-02-11T19:24:18.870Z,9.40
2023-02-11T19:26:47.089Z,9.13
2023-02-11T19:29:13.864Z,8.00
2023-02-11T19:31:40.557Z,8.48
2023-02-11T19:34:07.994Z,6.30
2023-02-11T19:36:34.726Z,5.97
2023-02-11T19:39:02.132Z,9.45
2023-02-11T19:41:29.869Z,9.00
2023-02-11T19:43:56.941Z,7.68
2023-02-11T19:46:25.004Z,7.50
2023-02-11T19:48:51.829Z,9.48
2023-02-11T19:51:19.028Z,7.40
2023-02-11T19:53:46.113Z,6.65
2023-02-11T19:56:13.643Z,6.20
2023-02-11T19:58:40.639Z,7.65
2023-02-11T20:01:19.620Z,7.85
2023-02-11T20:03:50.003Z,9.23
2023-02-11T20:06:19.300Z,10.05
2023-02-11T20:08:45.836Z,9.32
2023-02-11T20:11:15.416Z,10.45
2023-02-11T20:13:42.807Z,8.65
2023-02-11T20:16:16.566Z,10.15
2023-02-11T20:18:43.837Z,8.57
2023-02-11T20:21:12.549Z,7.35
2023-02-11T20:23:40.420Z,8.55
2023-02-11T20:26:08.202Z,6.53
2023-02-11T20:28:35.298Z,11.93
2023-02-11T20:31:02.460Z,9.23
2023-02-11T20:33:30.131Z,7.95
2023-02-11T20:36:01.968Z,9.07
2023-02-11T20:38:29.055Z,8.88
2023-02-11T20:40:55.831Z,8.35
2023-02-11T20:43:22.414Z,9.05
2023-02-11T20:45:49.529Z,10.80
2023-02-11T20:48:16.426Z,10.05
2023-02-11T20:50:43.054Z,10.93
2023-02-11T20:53:10.833Z,11.68
2023-02-11T20:55:39.160Z,8.38
2023-02-11T20:58:07.484Z,9.70
2023-02-11T21:00:35.624Z,9.10
2023-02-11T21:03:02.207Z,12.27
2023-02-11T21:05:29.385Z,10.90
2023-02-11T21:07:55.993Z,9.73
2023-02-11T21:10:22.939Z,10.13
2023-02-11T21:12:49.983Z,11.73
2023-02-11T21:15:16.809Z,11.18
2023-02-11T21:17:43.298Z,10.88
2023-02-11T21:20:10.214Z,8.23
2023-02-11T21:22:37.059Z,10.40
2023-02-11T21:25:06.050Z,9.95
2023-02-11T21:27:33.858Z,9.85
2023-02-11T21:30:01.365Z,13.75
2023-02-11T21:32:28.254Z,9.30
2023-02-11T21:34:54.818Z,11.73
2023-02-11T21:37:23.138Z,11.82
2023-02-11T21:39:50.246Z,9.85
2023-02-11T21:42:16.819Z,14.80
2023-02-11T21:44:43.357Z,11.25
2023-02-11T21:47:10.027Z,11.25
2023-02-11T21:49:36.742Z,12.80
2023-02-11T21:52:03.377Z,15.88
2023-02-11T21:54:32.044Z,10.20
2023-02-11T21:56:59.695Z,12.45
2023-02-11T21:59:26.173Z,16.45
2023-02-11T22:01:52.712Z,11.35
2023-02-11T22:04:19.211Z,9.80
2023-02-11T22:06:45.794Z,12.32
2023-02-11T22:09:12.367Z,11.18
2023-02-11T22:11:38.961Z,13.07
2023-02-11T22:14:06.809Z,9.80
2023-02-11T22:16:33.580Z,11.90
2023-02-11T22:19:02.271Z,16.25
2023-02-11T22:21:28.801Z,13.43
2023-02-11T22:23:56.228Z,15.38
2023-02-11T22:26:24.811Z,12.73
2023-02-11T22:28:51.840Z,13.50
2023-02-11T22:31:21.785Z,15.50
2023-02-11T22:33:48.675Z,12.13
2023-02-11T22:36:27.334Z,13.88
2023-02-11T22:38:54.573Z,12.88
2023-02-11T22:41:21.803Z,14.45
2023-02-11T22:43:48.388Z,10.55
2023-02-11T22:46:18.100Z,13.07
2023-02-11T22:48:44.799Z,12.40
2023-02-11T22:51:16.924Z,10.05
2023-02-11T22:53:44.401Z,12.18
2023-02-11T22:56:15.373Z,11.10
2023-02-11T22:58:42.604Z,15.90
2023-02-11T23:01:09.513Z,11.13
2023-02-11T23:03:36.420Z,13.48
2023-02-11T23:06:03.156Z,12.38
2023-02-11T23:08:31.077Z,11.20
2023-02-11T23:11:07.501Z,13.63
2023-02-11T23:13:35.853Z,11.45
2023-02-11T23:16:08.657Z,11.45
2023-02-11T23:18:37.249Z,10.70
2023-02-11T23:21:06.677Z,10.90
2023-02-11T23:23:34.157Z,10.52
2023-02-11T23:26:01.447Z,14.00
2023-02-11T23:28:28.255Z,14.60
2023-02-11T23:30:54.882Z,12.65
2023-02-11T23:33:22.232Z,13.68
2023-02-11T23:35:48.833Z,14.07
2023-02-11T23:38:15.385Z,9.95
2023-02-11T23:40:42.264Z,11.30
2023-02-11T23:43:09.080Z,11.95
2023-02-11T23:45:35.757Z,9.38
2023-02-11T23:48:02.292Z,12.48
2023-02-11T23:50:28.846Z,14.45
2023-02-11T23:52:55.328Z,13.43
2023-02-11T23:55:21.802Z,11.20
2023-02-11T23:57:48.262Z,11.20
